Time;durP1;ratioP1;P1;durP2;ratioP2;P2;SDS_P1;SDS_P2;PMS_P1;PMS_P2;Temp;Humidity;BMP_temperature;BMP_pressure;BME280_temperature;BME280_humidity;BME280_pressure;Samples;Min_cycle;Max_cycle;Signal;HPM_P1;HPM_P2
2021/07/13 00:00:39;;;;;;;10.53;5.90;;;;;;;20.06;100.00;96053.16;5052890;28;20194;-80
2021/07/13 00:03:08;;;;;;;7.43;6.73;;;;;;;19.89;100.00;96044.13;5052767;28;20202;-80
2021/07/13 00:05:37;;;;;;;8.67;7.67;;;;;;;19.87;100.00;96038.19;5052859;28;20281;-80
2021/07/13 00:08:05;;;;;;;8.57;7.47;;;;;;;19.73;100.00;96034.03;5052786;28;20290;-81
2021/07/13 00:10:34;;;;;;;7.77;7.17;;;;;;;19.93;100.00;96021.28;5053183;28;20205;-81
2021/07/13 00:13:02;;;;;;;10.40;6.80;;;;;;;19.84;100.00;96019.94;5052651;28;20247;-81
2021/07/13 00:15:34;;;;;;;8.10;7.30;;;;;;;19.93;100.00;96023.97;5052542;28;20276;-80
2021/07/13 00:18:03;;;;;;;7.03;6.40;;;;;;;20.09;100.00;96036.69;5052853;28;20210;-81
2021/07/13 00:20:30;;;;;;;8.57;7.77;;;;;;;19.88;100.00;96029.97;5052647;28;20234;-81
2021/07/13 00:22:58;;;;;;;7.67;6.97;;;;;;;19.74;100.00;96011.66;5052567;28;20197;-81
2021/07/13 00:25:26;;;;;;;8.93;8.03;;;;;;;19.57;100.00;95985.56;5052862;28;20229;-80
2021/07/13 00:27:53;;;;;;;8.40;7.70;;;;;;;19.70;100.00;95996.09;5052399;28;20213;-81
2021/07/13 00:30:21;;;;;;;8.97;8.03;;;;;;;19.88;100.00;95997.13;5052369;28;20215;-81
2021/07/13 00:32:51;;;;;;;8.93;8.00;;;;;;;19.71;100.00;96000.41;5052439;28;20197;-81
2021/07/13 00:35:19;;;;;;;9.23;8.37;;;;;;;19.42;100.00;95969.91;5052211;28;20647;-81
2021/07/13 00:37:48;;;;;;;8.83;8.03;;;;;;;19.32;100.00;95942.16;5052526;28;20256;-81
2021/07/13 00:40:17;;;;;;;8.60;7.87;;;;;;;19.42;100.00;95942.47;5052227;28;20197;-81
2021/07/13 00:42:46;;;;;;;8.90;8.00;;;;;;;19.42;100.00;95955.78;5051973;28;20289;-81
2021/07/13 00:45:14;;;;;;;7.90;7.23;;;;;;;19.45;100.00;95966.81;5052197;28;20744;-81
2021/07/13 00:47:42;;;;;;;9.87;8.50;;;;;;;19.48;100.00;95965.56;5052086;28;20235;-81
2021/07/13 00:50:11;;;;;;;8.70;7.90;;;;;;;19.57;100.00;95963.41;5052010;28;20285;-81
2021/07/13 00:52:39;;;;;;;9.17;8.43;;;;;;;19.71;100.00;95972.94;5051992;28;20209;-81
2021/07/13 00:55:07;;;;;;;10.13;8.27;;;;;;;19.61;100.00;95975.28;5051555;28;20280;-80
2021/07/13 00:57:36;;;;;;;8.93;8.27;;;;;;;19.42;100.00;95975.25;5052043;28;20197;-80
2021/07/13 01:00:05;;;;;;;7.77;7.03;;;;;;;19.58;100.00;95973.88;5052129;28;20667;-81
2021/07/13 01:02:33;;;;;;;11.33;7.97;;;;;;;19.62;100.00;95988.38;5051866;28;20198;-81
2021/07/13 01:05:07;;;;;;;8.27;7.47;;;;;;;19.52;100.00;95982.75;5051321;28;20277;-80
2021/07/13 01:07:49;;;;;;;7.70;6.90;;;;;;;19.71;100.00;95986.28;5051976;28;20189;-81
2021/07/13 01:10:23;;;;;;;9.33;8.33;;;;;;;19.48;100.00;95957.56;5052086;28;20610;-80
2021/07/13 01:13:12;;;;;;;9.03;8.00;;;;;;;19.55;100.00;95957.50;5051478;28;20675;-80
2021/07/13 01:15:46;;;;;;;9.03;8.13;;;;;;;19.51;100.00;95948.31;5051704;28;20250;-81
2021/07/13 01:18:21;;;;;;;10.00;8.93;;;;;;;19.55;100.00;95944.97;5051676;28;20681;-81
2021/07/13 01:21:21;;;;;;;9.90;8.90;;;;;;;19.37;100.00;95927.16;5051981;28;20251;-80
2021/07/13 01:24:17;;;;;;;10.37;9.37;;;;;;;19.35;100.00;95917.75;5052028;28;20279;-81
2021/07/13 01:26:59;;;;;;;9.47;8.77;;;;;;;19.28;100.00;95922.31;5051801;28;20744;-80
2021/07/13 01:29:29;;;;;;;12.77;9.57;;;;;;;19.30;100.00;95917.59;5051314;28;20225;-81
2021/07/13 01:31:58;;;;;;;13.00;9.30;;;;;;;19.37;100.00;95915.69;5051673;28;20251;-81
2021/07/13 01:34:29;;;;;;;9.17;8.37;;;;;;;19.43;100.00;95917.44;5051376;28;20265;-80
2021/07/13 01:37:00;;;;;;;10.17;9.37;;;;;;;19.41;100.00;95916.84;5051622;28;20277;-80
2021/07/13 01:39:29;;;;;;;9.73;8.80;;;;;;;19.46;100.00;95925.78;5051578;28;20182;-80
2021/07/13 01:42:02;;;;;;;10.20;9.30;;;;;;;19.49;100.00;95943.19;5051547;28;20197;-80
2021/07/13 01:44:31;;;;;;;10.27;9.27;;;;;;;19.31;100.00;95916.56;5051838;28;20201;-81
2021/07/13 01:46:59;;;;;;;9.83;8.90;;;;;;;19.11;100.00;95896.25;5051619;28;20201;-81
2021/07/13 01:49:28;;;;;;;9.80;8.83;;;;;;;19.16;100.00;95893.75;5051563;28;20248;-80
2021/07/13 01:51:57;;;;;;;10.20;9.23;;;;;;;19.42;100.00;95897.16;5051485;28;20206;-80
2021/07/13 01:54:27;;;;;;;8.93;8.23;;;;;;;19.48;100.00;95928.25;5051429;28;20198;-82
2021/07/13 01:57:00;;;;;;;9.73;8.93;;;;;;;19.32;100.00;95928.84;5051532;28;20190;-80
2021/07/13 01:59:28;;;;;;;9.33;8.43;;;;;;;19.41;100.00;95933.66;5051473;28;20739;-81
2021/07/13 02:01:59;;;;;;;10.87;9.87;;;;;;;19.25;100.00;95921.72;5051287;28;20246;-80
2021/07/13 02:04:30;;;;;;;10.40;9.50;;;;;;;19.27;100.00;95915.38;5051162;28;20281;-81
2021/07/13 02:07:00;;;;;;;10.47;9.43;;;;;;;19.25;100.00;95911.06;5051984;28;20587;-80
2021/07/13 02:09:28;;;;;;;10.13;8.87;;;;;;;19.17;100.00;95915.88;5051351;28;20204;-81
2021/07/13 02:11:57;;;;;;;10.63;9.63;;;;;;;19.20;100.00;95916.25;5051311;28;20237;-80
2021/07/13 02:14:25;;;;;;;11.13;10.20;;;;;;;19.11;100.00;95920.22;5050983;28;20202;-81
2021/07/13 02:16:53;;;;;;;10.97;9.97;;;;;;;18.94;100.00;95903.19;5054261;28;20666;-81
2021/07/13 02:19:22;;;;;;;12.07;9.67;;;;;;;19.08;100.00;95901.22;5055190;28;20575;-80
2021/07/13 02:21:50;;;;;;;11.20;10.20;;;;;;;18.97;100.00;95895.59;5054803;28;20198;-80
2021/07/13 02:24:18;;;;;;;12.03;9.97;;;;;;;18.97;100.00;95884.13;5054552;28;20244;-80
2021/07/13 02:26:52;;;;;;;10.73;9.73;;;;;;;18.87;100.00;95868.66;5054769;28;20210;-80
2021/07/13 02:29:37;;;;;;;10.57;9.63;;;;;;;18.90;100.00;95867.41;5054688;28;20282;-80
2021/07/13 02:32:11;;;;;;;9.00;8.10;;;;;;;18.96;100.00;95863.84;5054820;28;20222;-80
2021/07/13 02:34:42;;;;;;;9.87;8.83;;;;;;;19.02;100.00;95849.66;5054507;28;20236;-80
2021/07/13 02:37:12;;;;;;;9.50;8.70;;;;;;;18.97;100.00;95854.81;5054581;28;20217;-80
2021/07/13 02:39:42;;;;;;;9.87;8.87;;;;;;;19.09;100.00;95882.38;5054508;28;20181;-80
2021/07/13 02:42:11;;;;;;;9.97;9.00;;;;;;;19.07;100.00;95884.44;5054209;28;20732;-80
2021/07/13 02:44:38;;;;;;;9.23;8.43;;;;;;;19.16;100.00;95888.44;5054485;28;20194;-80
2021/07/13 02:47:08;;;;;;;10.93;9.10;;;;;;;18.87;100.00;95881.16;5054428;28;20586;-81
2021/07/13 02:49:43;;;;;;;9.47;8.67;;;;;;;18.83;100.00;95850.69;5054433;28;20276;-81
2021/07/13 02:52:14;;;;;;;10.50;9.60;;;;;;;18.88;100.00;95869.47;5054445;28;20190;-80
2021/07/13 02:54:42;;;;;;;10.13;9.23;;;;;;;18.93;100.00;95856.31;5053675;28;20385;-80
2021/07/13 02:57:11;;;;;;;11.10;10.07;;;;;;;18.94;100.00;95871.25;5054532;28;20193;-80
2021/07/13 02:59:41;;;;;;;11.33;9.13;;;;;;;19.00;100.00;95859.72;5054267;28;20222;-81
2021/07/13 03:02:08;;;;;;;14.10;10.30;;;;;;;18.88;100.00;95862.31;5054286;28;20281;-80
2021/07/13 03:04:38;;;;;;;10.93;9.83;;;;;;;18.90;100.00;95849.56;5053757;28;20202;-81
2021/07/13 03:07:06;;;;;;;10.27;9.40;;;;;;;18.93;100.00;95858.97;5054119;28;20240;-80
2021/07/13 03:09:35;;;;;;;11.13;10.20;;;;;;;18.94;100.00;95860.59;5053616;28;20198;-80
2021/07/13 03:12:03;;;;;;;12.50;10.87;;;;;;;18.91;100.00;95859.22;5053946;28;20198;-80
2021/07/13 03:14:33;;;;;;;10.37;9.30;;;;;;;18.79;100.00;95865.47;5053884;28;20289;-80
2021/07/13 03:17:02;;;;;;;9.80;8.97;;;;;;;18.91;100.00;95875.19;5054234;28;20252;-80
2021/07/13 03:19:29;;;;;;;10.70;9.70;;;;;;;18.91;100.00;95853.88;5053474;28;20293;-80
2021/07/13 03:21:58;;;;;;;11.50;10.50;;;;;;;18.80;100.00;95843.13;5053682;28;20221;-80
2021/07/13 03:24:27;;;;;;;10.33;9.40;;;;;;;18.89;100.00;95842.63;5053607;28;20750;-79
2021/07/13 03:26:57;;;;;;;11.07;10.10;;;;;;;18.75;100.00;95841.94;5052785;28;20198;-80
2021/07/13 03:29:25;;;;;;;13.67;10.13;;;;;;;18.77;100.00;95834.56;5053610;28;20232;-80
2021/07/13 03:31:53;;;;;;;10.13;9.33;;;;;;;18.82;100.00;95838.41;5053885;28;20201;-80
2021/07/13 03:34:23;;;;;;;11.17;10.07;;;;;;;18.88;100.00;95841.00;5053637;28;20220;-80
2021/07/13 03:36:51;;;;;;;10.93;9.97;;;;;;;18.88;100.00;95832.22;5053313;28;20231;-80
2021/07/13 03:39:18;;;;;;;11.77;10.57;;;;;;;18.90;100.00;95833.59;5053142;28;20248;-79
2021/07/13 03:41:48;;;;;;;10.53;9.63;;;;;;;18.81;100.00;95823.44;5051908;28;20580;-79
2021/07/13 03:44:16;;;;;;;10.53;9.67;;;;;;;18.84;100.00;95823.00;5038515;28;20206;-80
2021/07/13 03:46:44;;;;;;;11.20;10.20;;;;;;;18.87;100.00;95833.22;5033006;28;20205;-79
2021/07/13 03:49:11;;;;;;;10.23;9.27;;;;;;;18.97;100.00;95833.53;5032905;28;20289;-80
2021/07/13 03:51:42;;;;;;;10.43;9.53;;;;;;;18.99;100.00;95820.81;5033506;28;20199;-79
2021/07/13 03:54:10;;;;;;;10.27;9.27;;;;;;;18.86;100.00;95804.97;5033445;28;20628;-80
2021/07/13 03:56:38;;;;;;;11.27;10.13;;;;;;;18.92;100.00;95793.44;5032940;28;20321;-80
2021/07/13 03:59:06;;;;;;;11.47;10.47;;;;;;;19.05;100.00;95805.78;5033061;28;20294;-81
2021/07/13 04:01:36;;;;;;;10.33;9.50;;;;;;;18.97;100.00;95802.38;5033336;28;20230;-81
2021/07/13 04:04:04;;;;;;;10.70;9.70;;;;;;;18.99;100.00;95800.31;5032954;28;20203;-80
2021/07/13 04:06:31;;;;;;;14.23;10.57;;;;;;;19.01;100.00;95794.75;5033023;28;20241;-80
2021/07/13 04:08:58;;;;;;;11.70;10.33;;;;;;;19.03;100.00;95792.69;5032823;28;20289;-80
2021/07/13 04:11:26;;;;;;;11.23;9.23;;;;;;;19.18;100.00;95793.09;5030904;28;20234;-81
2021/07/13 04:13:53;;;;;;;10.87;9.87;;;;;;;19.17;100.00;95790.69;5036937;28;20281;-82
2021/07/13 04:16:21;;;;;;;10.77;9.87;;;;;;;19.10;100.00;95780.09;5051028;28;20231;-80
2021/07/13 04:18:49;;;;;;;11.30;10.17;;;;;;;19.17;100.00;95790.69;5050032;28;20736;-80
2021/07/13 04:21:17;;;;;;;10.33;9.40;;;;;;;19.21;100.00;95792.66;5050417;28;20204;-79
2021/07/13 04:23:44;;;;;;;10.20;9.33;;;;;;;19.15;100.00;95803.41;5051338;28;20197;-79
2021/07/13 04:26:12;;;;;;;11.43;10.10;;;;;;;19.10;100.00;95789.94;5051841;28;20190;-79
2021/07/13 04:28:39;;;;;;;11.77;9.90;;;;;;;19.24;100.00;95799.41;5050539;28;20202;-79
2021/07/13 04:31:07;;;;;;;11.30;9.20;;;;;;;19.24;100.00;95778.91;5051353;28;20231;-80
2021/07/13 04:33:34;;;;;;;10.67;9.77;;;;;;;19.31;100.00;95778.00;5052467;28;20221;-80
2021/07/13 04:36:03;;;;;;;11.10;10.00;;;;;;;19.16;100.00;95781.88;5052126;28;20261;-80
2021/07/13 04:38:30;;;;;;;11.23;10.33;;;;;;;19.35;100.00;95769.31;5052218;28;20254;-80
2021/07/13 04:40:58;;;;;;;11.00;9.73;;;;;;;19.39;100.00;95777.69;5052067;28;20239;-79
2021/07/13 04:43:25;;;;;;;10.63;9.57;;;;;;;19.40;100.00;95769.47;5051779;28;20228;-80
2021/07/13 04:45:52;;;;;;;11.07;10.10;;;;;;;19.37;100.00;95755.78;5052362;28;20683;-79
2021/07/13 04:48:20;;;;;;;13.13;10.53;;;;;;;19.45;100.00;95745.63;5052192;28;20236;-79
2021/07/13 04:50:47;;;;;;;10.57;9.67;;;;;;;19.42;100.00;95727.41;5052085;28;20233;-79
2021/07/13 04:53:16;;;;;;;11.63;10.67;;;;;;;19.42;100.00;95689.28;5051671;28;20252;-80
2021/07/13 04:55:43;;;;;;;11.17;10.17;;;;;;;19.44;100.00;95671.22;5051699;28;20233;-79
2021/07/13 04:58:10;;;;;;;11.27;10.30;;;;;;;19.57;100.00;95668.38;5051872;28;20201;-79
2021/07/13 05:00:37;;;;;;;12.67;10.90;;;;;;;19.67;100.00;95654.47;5051689;28;20251;-79
2021/07/13 05:03:05;;;;;;;9.13;8.43;;;;;;;19.76;100.00;95670.97;5052085;28;20285;-79
2021/07/13 05:05:32;;;;;;;12.03;10.00;;;;;;;19.84;100.00;95681.28;5051948;28;20642;-79
2021/07/13 05:08:00;;;;;;;11.07;9.97;;;;;;;19.94;100.00;95701.00;5051943;28;20201;-80
2021/07/13 05:10:28;;;;;;;9.93;9.03;;;;;;;20.04;100.00;95711.09;5052011;28;20280;-80
2021/07/13 05:12:56;;;;;;;11.07;9.00;;;;;;;20.27;100.00;95746.84;5051724;28;20668;-79
2021/07/13 05:15:23;;;;;;;10.20;8.50;;;;;;;20.38;100.00;95794.88;5051754;28;20229;-79
2021/07/13 05:17:50;;;;;;;8.80;8.07;;;;;;;20.57;100.00;95846.31;5051338;28;20558;-80
2021/07/13 05:20:18;;;;;;;12.17;7.57;;;;;;;20.71;100.00;95868.25;5051979;28;20584;-80
2021/07/13 05:22:45;;;;;;;13.33;8.60;;;;;;;20.80;100.00;95874.88;5051968;28;20271;-80
2021/07/13 05:25:14;;;;;;;12.80;8.37;;;;;;;20.89;100.00;95878.03;5051486;28;20730;-80
2021/07/13 05:27:44;;;;;;;9.93;9.03;;;;;;;21.03;100.00;95903.47;5051916;28;20198;-80
2021/07/13 05:30:13;;;;;;;8.53;7.37;;;;;;;21.18;100.00;95926.22;5051601;28;20205;-79
2021/07/13 05:32:41;;;;;;;8.90;8.00;;;;;;;21.49;100.00;96018.63;5051929;28;20194;-79
2021/07/13 05:35:09;;;;;;;8.60;7.10;;;;;;;21.65;100.00;96036.66;5051743;28;20293;-80
2021/07/13 05:37:37;;;;;;;7.97;7.27;;;;;;;21.81;100.00;96043.94;5051310;28;20265;-80
2021/07/13 05:40:06;;;;;;;8.67;7.97;;;;;;;21.96;100.00;96048.81;5051759;28;20201;-80
2021/07/13 05:42:34;;;;;;;8.23;7.43;;;;;;;22.29;100.00;96130.38;5051775;28;20202;-80
2021/07/13 05:45:06;;;;;;;7.57;6.87;;;;;;;22.53;100.00;96158.72;5051641;28;20197;-80
2021/07/13 05:47:33;;;;;;;7.60;7.00;;;;;;;22.70;100.00;96174.88;5051614;28;20186;-79
2021/07/13 05:50:00;;;;;;;8.00;7.20;;;;;;;22.85;100.00;96165.50;5051665;28;20224;-80
2021/07/13 05:52:28;;;;;;;7.80;6.83;;;;;;;23.04;100.00;96179.56;5055545;28;20284;-79
2021/07/13 05:54:55;;;;;;;9.83;7.80;;;;;;;23.27;100.00;96190.97;5055079;28;20294;-80
2021/07/13 05:57:22;;;;;;;8.50;7.47;;;;;;;23.42;100.00;96229.88;5055167;28;20713;-80
2021/07/13 05:59:50;;;;;;;8.37;7.40;;;;;;;23.58;100.00;96239.00;5055687;28;20285;-80
2021/07/13 06:02:18;;;;;;;7.63;7.03;;;;;;;23.78;100.00;96243.94;5055372;28;20244;-79
2021/07/13 06:04:46;;;;;;;7.43;6.73;;;;;;;23.95;100.00;96237.53;5055054;28;20743;-80
2021/07/13 06:07:13;;;;;;;8.57;7.67;;;;;;;24.17;100.00;96236.78;5055157;28;20282;-80
2021/07/13 06:09:40;;;;;;;8.07;7.27;;;;;;;24.29;100.00;96240.19;5055126;28;20293;-80
2021/07/13 06:12:08;;;;;;;10.23;7.33;;;;;;;24.40;100.00;96247.38;5055164;28;20204;-80
2021/07/13 06:14:36;;;;;;;8.20;7.30;;;;;;;24.57;100.00;96255.41;5055192;28;20221;-80
2021/07/13 06:17:04;;;;;;;8.93;6.93;;;;;;;24.73;100.00;96260.97;5055159;28;20257;-80
2021/07/13 06:19:33;;;;;;;7.57;6.70;;;;;;;24.84;100.00;96274.31;5055284;28;20198;-80
2021/07/13 06:22:01;;;;;;;7.33;6.63;;;;;;;24.92;100.00;96273.88;5054983;28;20240;-80
2021/07/13 06:24:29;;;;;;;8.80;7.20;;;;;;;25.14;100.00;96281.97;5055059;28;20688;-80
2021/07/13 06:26:56;;;;;;;11.40;7.50;;;;;;;25.31;100.00;96289.97;5052739;28;20251;-80
2021/07/13 06:29:24;;;;;;;10.07;8.47;;;;;;;25.49;100.00;96288.03;5053960;28;20247;-80
2021/07/13 06:31:52;;;;;;;7.90;6.87;;;;;;;25.77;100.00;96295.03;5055035;28;20582;-80
2021/07/13 06:34:19;;;;;;;9.87;7.37;;;;;;;26.04;100.00;96281.59;5054611;28;20208;-80
2021/07/13 06:36:48;;;;;;;8.85;7.90;;;;;;;26.14;100.00;96289.75;5054642;28;20317;-80
2021/07/13 06:39:16;;;;;;;8.47;7.17;;;;;;;26.39;100.00;96291.03;5054455;28;20198;-80
2021/07/13 06:41:43;;;;;;;9.00;7.15;;;;;;;26.57;100.00;96296.06;5054633;28;20204;-80
2021/07/13 06:44:11;;;;;;;9.88;7.32;;;;;;;26.75;100.00;96301.00;5054339;28;20259;-80
2021/07/13 06:46:39;;;;;;;11.85;7.90;;;;;;;27.09;100.00;96308.75;5054620;28;20207;-80
2021/07/13 06:49:06;;;;;;;7.30;6.50;;;;;;;27.27;100.00;96321.00;5054594;28;20618;-80
2021/07/13 06:51:34;;;;;;;7.75;6.78;;;;;;;27.21;100.00;96327.44;5054456;28;20204;-80
2021/07/13 06:54:03;;;;;;;7.88;6.22;;;;;;;27.46;100.00;96332.13;5054199;28;20240;-81
2021/07/13 06:56:30;;;;;;;9.60;6.72;;;;;;;27.61;100.00;96336.78;5053894;28;20295;-81
2021/07/13 06:58:57;;;;;;;11.88;7.30;;;;;;;27.56;100.00;96342.16;5054196;28;20244;-81
2021/07/13 07:01:25;;;;;;;6.90;6.30;;;;;;;27.48;100.00;96348.88;5053323;28;20194;-81
2021/07/13 07:03:52;;;;;;;7.55;5.55;;;;;;;27.68;100.00;96348.97;5053713;28;20734;-80
2021/07/13 07:06:19;;;;;;;6.22;5.60;;;;;;;27.49;100.00;96354.00;5054468;28;20276;-80
2021/07/13 07:08:47;;;;;;;7.28;5.90;;;;;;;27.83;100.00;96350.91;5053636;28;20260;-80
2021/07/13 07:11:15;;;;;;;5.55;5.15;;;;;;;28.09;100.00;96359.91;5054080;28;20237;-80
2021/07/13 07:13:43;;;;;;;6.15;5.65;;;;;;;28.21;100.00;96363.13;5053767;28;20198;-80
2021/07/13 07:16:10;;;;;;;5.38;4.97;;;;;;;28.49;100.00;96352.91;5053882;28;20256;-81
2021/07/13 07:18:37;;;;;;;6.38;4.85;;;;;;;28.54;100.00;96371.03;5053469;28;20206;-81
2021/07/13 07:21:05;;;;;;;5.97;5.40;;;;;;;28.70;100.00;96369.13;5053919;28;20259;-81
2021/07/13 07:23:32;;;;;;;6.30;5.70;;;;;;;28.61;100.00;96366.16;5053635;28;20619;-81
2021/07/13 07:26:00;;;;;;;6.65;5.95;;;;;;;28.93;100.00;96365.88;5054083;28;20236;-81
2021/07/13 07:28:29;;;;;;;6.93;6.32;;;;;;;28.93;100.00;96363.16;5053710;28;20224;-81
2021/07/13 07:30:56;;;;;;;9.25;7.07;;;;;;;28.64;100.00;96365.59;5053438;28;20202;-81
2021/07/13 07:33:24;;;;;;;7.97;7.03;;;;;;;28.64;100.00;96365.59;5053415;28;20285;-81
2021/07/13 07:35:52;;;;;;;12.75;6.63;;;;;;;28.73;100.00;96355.88;5053993;28;20198;-81
2021/07/13 07:38:19;;;;;;;8.45;7.07;;;;;;;28.73;100.00;96363.19;5053599;28;20229;-81
2021/07/13 07:40:46;;;;;;;7.13;6.45;;;;;;;29.06;100.00;96356.38;5053265;28;20717;-81
2021/07/13 07:43:14;;;;;;;7.63;6.88;;;;;;;29.08;100.00;96365.06;5053289;28;20227;-81
2021/07/13 07:45:43;;;;;;;8.40;7.38;;;;;;;29.32;100.00;96362.56;5053736;28;20201;-81
2021/07/13 07:48:10;;;;;;;8.80;7.63;;;;;;;29.38;100.00;96353.34;5052822;28;20202;-81
2021/07/13 07:50:38;;;;;;;7.22;6.53;;;;;;;28.97;100.00;96371.53;5053926;28;20190;-82
2021/07/13 07:53:05;;;;;;;7.47;6.78;;;;;;;29.49;100.00;96364.94;5053050;28;20292;-81
2021/07/13 07:55:33;;;;;;;7.07;6.40;;;;;;;29.47;100.00;96378.72;5052863;28;20276;-81
2021/07/13 07:58:00;;;;;;;7.72;6.93;;;;;;;29.52;100.00;96364.38;5052862;28;20268;-81
2021/07/13 08:00:28;;;;;;;7.35;6.82;;;;;;;29.48;100.00;96360.59;5053461;28;20197;-81
2021/07/13 08:02:57;;;;;;;8.13;7.07;;;;;;;29.21;100.00;96367.19;5053221;28;20578;-81
2021/07/13 08:05:26;;;;;;;11.32;6.93;;;;;;;29.32;100.00;96385.00;5052808;28;20738;-82
2021/07/13 08:07:54;;;;;;;9.48;7.18;;;;;;;29.55;100.00;96364.63;5053275;28;20190;-81
2021/07/13 08:10:21;;;;;;;7.65;6.93;;;;;;;29.72;100.00;96368.91;5052903;28;20260;-81
2021/07/13 08:12:49;;;;;;;9.02;7.25;;;;;;;30.09;100.00;96358.41;5052380;28;20205;-81
2021/07/13 08:15:17;;;;;;;8.95;8.20;;;;;;;29.67;100.00;96377.06;5053157;28;20201;-82
2021/07/13 08:17:45;;;;;;;9.32;7.05;;;;;;;29.78;100.00;96368.59;5052861;28;20221;-82
2021/07/13 08:20:16;;;;;;;8.63;7.82;;;;;;;29.84;100.00;96377.53;5052989;28;20220;-82
2021/07/13 08:22:46;;;;;;;12.50;9.15;;;;;;;29.71;100.00;96370.00;5052594;28;20198;-82
2021/07/13 08:25:14;;;;;;;10.85;9.75;;;;;;;29.97;100.00;96367.97;5052416;28;20200;-81
2021/07/13 08:27:41;;;;;;;10.70;9.70;;;;;;;29.91;100.00;96369.91;5052923;28;20577;-81
2021/07/13 08:30:10;;;;;;;9.75;8.85;;;;;;;29.98;100.00;96377.72;5052741;28;20206;-81
2021/07/13 08:32:37;;;;;;;8.77;7.90;;;;;;;29.85;100.00;96381.84;5052574;28;20197;-81
2021/07/13 08:35:06;;;;;;;9.73;8.82;;;;;;;29.78;100.00;96371.31;5052286;28;20237;-81
2021/07/13 08:37:35;;;;;;;9.82;9.02;;;;;;;29.79;100.00;96369.41;5052649;28;20250;-81
2021/07/13 08:40:04;;;;;;;8.68;7.80;;;;;;;29.99;100.00;96374.72;5052466;28;20207;-81
2021/07/13 08:42:35;;;;;;;8.43;7.82;;;;;;;30.07;100.00;96374.16;5052349;28;20221;-82
2021/07/13 08:45:05;;;;;;;14.88;8.27;;;;;;;30.12;100.00;96378.72;5052208;28;20193;-81
2021/07/13 08:47:37;;;;;;;9.15;8.40;;;;;;;30.32;100.00;96361.53;5052249;28;20213;-81
2021/07/13 08:50:05;;;;;;;9.02;8.13;;;;;;;30.55;100.00;96360.81;5052095;28;20190;-82
2021/07/13 08:52:33;;;;;;;9.40;8.43;;;;;;;30.80;100.00;96372.59;5052623;28;20284;-82
2021/07/13 08:55:03;;;;;;;12.07;8.88;;;;;;;30.70;100.00;96381.59;5051630;28;20843;-82
2021/07/13 08:57:30;;;;;;;9.95;8.95;;;;;;;30.46;100.00;96367.94;5052415;28;20243;-82
2021/07/13 08:59:57;;;;;;;9.25;8.55;;;;;;;30.31;100.00;96366.16;5052209;28;20236;-82
2021/07/13 09:02:25;;;;;;;8.10;7.38;;;;;;;30.46;100.00;96367.94;5051988;28;20233;-82
2021/07/13 09:04:52;;;;;;;8.68;7.88;;;;;;;30.59;100.00;96371.09;5051807;28;20292;-81
2021/07/13 09:07:20;;;;;;;9.07;8.18;;;;;;;30.57;100.00;96376.81;5052035;28;20552;-82
2021/07/13 09:09:52;;;;;;;9.02;8.00;;;;;;;29.89;100.00;96369.34;5051981;28;20293;-82
2021/07/13 09:12:22;;;;;;;8.45;7.70;;;;;;;29.81;100.00;96384.31;5051948;28;20225;-82
2021/07/13 09:14:55;;;;;;;10.35;8.18;;;;;;;29.84;100.00;96382.94;5052038;28;20197;-82
2021/07/13 09:17:37;;;;;;;8.75;7.85;;;;;;;29.89;100.00;96376.69;5051851;28;20264;-82
2021/07/13 09:20:11;;;;;;;10.50;8.43;;;;;;;29.71;100.00;96368.09;5051710;28;20198;-82
2021/07/13 09:22:41;;;;;;;9.00;8.10;;;;;;;29.41;100.00;96377.16;5051676;28;20755;-82
2021/07/13 09:25:43;;;;;;;9.25;7.68;;;;;;;29.88;100.00;96366.94;5050908;28;20197;-82
2021/07/13 09:28:15;;;;;;;7.93;7.13;;;;;;;30.17;100.00;96375.16;4951722;29;20286;-82
2021/07/13 09:30:46;;;;;;;8.77;7.90;;;;;;;30.35;100.00;96365.59;4951604;29;20284;-82
2021/07/13 09:33:18;;;;;;;8.23;7.47;;;;;;;30.62;100.00;96378.66;4951773;29;20292;-82
2021/07/13 09:36:06;;;;;;;7.38;6.65;;;;;;;30.74;100.00;96373.69;4951819;29;20186;-81
2021/07/13 09:38:35;;;;;;;8.32;7.63;;;;;;;29.84;100.00;96378.34;4951528;29;20571;-81
2021/07/13 09:41:05;;;;;;;9.73;8.82;;;;;;;29.60;100.00;96366.53;4951700;29;20209;-81
2021/07/13 09:43:46;;;;;;;9.48;8.68;;;;;;;30.16;100.00;96368.13;4951379;29;20212;-81
2021/07/13 09:46:35;;;;;;;8.10;7.50;;;;;;;30.66;100.00;96371.59;4951917;29;20261;-82
2021/07/13 09:49:11;;;;;;;8.45;7.72;;;;;;;30.47;100.00;96372.25;4951488;29;20209;-82
2021/07/13 09:51:39;;;;;;;8.73;7.88;;;;;;;30.47;100.00;96368.75;4951541;29;20614;-82
2021/07/13 09:54:32;;;;;;;9.20;7.82;;;;;;;30.78;100.00;96363.91;4951346;29;20280;-82
2021/07/13 09:57:01;;;;;;;8.65;8.05;;;;;;;30.28;100.00;96355.88;4951668;29;20269;-82
2021/07/13 09:59:30;;;;;;;8.32;7.53;;;;;;;29.85;100.00;96368.31;5017441;28;20197;-82
2021/07/13 10:01:58;;;;;;;8.65;7.95;;;;;;;29.92;100.00;96359.88;5051454;28;20237;-82
2021/07/13 10:04:25;;;;;;;9.25;7.93;;;;;;;30.25;100.00;96361.88;5051224;28;20662;-82
2021/07/13 10:06:56;;;;;;;8.55;7.75;;;;;;;30.91;100.00;96368.66;5051712;28;20229;-82
2021/07/13 10:09:29;;;;;;;8.65;7.78;;;;;;;31.19;100.00;96368.94;5050987;28;20232;-82
2021/07/13 10:11:56;;;;;;;7.72;7.07;;;;;;;31.38;100.00;96369.84;5051434;28;20222;-82
2021/07/13 10:14:25;;;;;;;7.15;6.28;;;;;;;31.36;100.00;96368.50;5051393;28;20582;-82
2021/07/13 10:16:54;;;;;;;8.07;7.20;;;;;;;31.64;100.00;96375.78;5051955;28;20617;-82
2021/07/13 10:19:22;;;;;;;7.97;6.82;;;;;;;31.74;100.00;96370.22;5050804;28;20201;-82
2021/07/13 10:21:49;;;;;;;6.85;6.25;;;;;;;31.74;100.00;96374.84;5051335;28;20233;-82
2021/07/13 10:24:22;;;;;;;8.77;6.63;;;;;;;31.57;100.00;96371.78;5051066;28;20686;-82
2021/07/13 10:26:51;;;;;;;10.00;6.90;;;;;;;31.60;100.00;96369.31;5051605;28;20300;-82
2021/07/13 10:29:46;;;;;;;8.30;7.50;;;;;;;31.58;100.00;96368.78;5051097;28;20194;-81
2021/07/13 10:32:43;;;;;;;8.40;7.47;;;;;;;31.55;100.00;96368.56;5051451;28;20630;-82
2021/07/13 10:35:24;;;;;;;7.53;6.95;;;;;;;31.57;100.00;96372.59;5030123;28;20205;-82
2021/07/13 10:37:52;;;;;;;8.30;7.35;;;;;;;31.52;100.00;96367.22;5054397;28;20210;-82
2021/07/13 10:40:41;;;;;;;7.40;6.80;;;;;;;31.19;100.00;96363.50;5054701;28;20275;-82
2021/07/13 10:43:17;;;;;;;7.40;6.65;;;;;;;30.56;100.00;96365.16;5047114;28;20744;-82
2021/07/13 10:45:46;;;;;;;7.70;7.10;;;;;;;30.49;100.00;96361.16;5054607;28;20644;-82
2021/07/13 10:48:16;;;;;;;7.32;6.65;;;;;;;31.06;100.00;96351.41;5054329;28;20204;-82
2021/07/13 10:50:47;;;;;;;7.45;6.40;;;;;;;31.42;100.00;96349.16;5054307;28;20194;-83
2021/07/13 10:53:21;;;;;;;8.32;7.38;;;;;;;31.60;100.00;96344.84;5054594;28;20197;-82
2021/07/13 10:56:04;;;;;;;8.93;8.00;;;;;;;31.76;100.00;96350.88;5054378;28;20282;-83
2021/07/13 10:58:47;;;;;;;8.57;7.35;;;;;;;31.93;100.00;96353.13;5054024;28;20228;-83
2021/07/13 11:01:21;;;;;;;7.50;6.90;;;;;;;31.70;100.00;96346.63;5054443;28;20182;-82
2021/07/13 11:04:04;;;;;;;7.60;6.85;;;;;;;31.78;100.00;96350.59;5054417;28;20188;-82
2021/07/13 11:06:55;;;;;;;8.43;6.70;;;;;;;32.08;100.00;96357.56;5054174;28;20281;-82
2021/07/13 11:09:34;;;;;;;8.40;7.70;;;;;;;32.24;100.00;96337.19;5054071;28;20273;-82
2021/07/13 11:12:10;;;;;;;7.78;7.07;;;;;;;32.37;100.00;96343.78;5054128;28;20236;-83
2021/07/13 11:15:05;;;;;;;7.55;6.95;;;;;;;32.63;100.00;96346.91;5054131;28;20296;-82
2021/07/13 11:17:33;;;;;;;7.60;6.90;;;;;;;32.73;100.00;96352.19;5053800;28;20206;-82
2021/07/13 11:20:09;;;;;;;7.43;6.72;;;;;;;31.57;100.00;96339.19;5053802;28;20202;-82
2021/07/13 11:22:39;;;;;;;7.65;7.05;;;;;;;31.68;100.00;96343.38;5053695;28;20189;-82
2021/07/13 11:25:08;;;;;;;7.90;7.10;;;;;;;31.42;100.00;96342.91;5053803;28;20190;-82
2021/07/13 11:27:36;;;;;;;7.85;7.18;;;;;;;31.66;100.00;96345.59;5053786;28;20277;-82
2021/07/13 11:30:05;;;;;;;8.10;7.28;;;;;;;31.67;100.00;96348.03;5053629;28;20205;-82
2021/07/13 11:32:32;;;;;;;8.05;7.25;;;;;;;31.46;100.00;96342.03;5053794;28;20252;-82
2021/07/13 11:34:59;;;;;;;7.75;7.15;;;;;;;31.21;100.00;96336.84;5053558;28;20286;-82